Latest Weather Observations for Mulurulu

IDN60801

Issued at 10:22 am EDT Sunday 17 February 2019 (issued every 10 minutes, with the page automatically refreshed every 10 minutes)

About weather observations | Map of weather stations | Latest weather observations for NSW | Other Formats
Station Details ID: 047113 Name: MULURULU AWS Lat: -33.34 Lon: 143.40 Height: 78.0 m
Data from the previous 72 hours. | See also: Recent months at Mulurulu
Date/Time
EDT
Temp
°C
App
Temp
°C
Dew
Point
°C
Rel
Hum
%
Delta-T
°C
Wind Press
QNH
hPa
Press
MSL
hPa
Rain since
9am
mm
Dir  Spd
km/h
Gust
km/h
Spd
kts
Gust
kts
17/10:00am 31.7 - 6.7 21 13.5 - - - - - - - 0.0
17/09:30am 29.7 - 5.1 21 12.8 - - - - - - - 0.0
17/09:00am 27.6 - 4.6 23 11.7 - - - - - - - 0.0
17/08:30am 25.3 - 3.3 24 10.8 - - - - - - - 0.0
17/08:00am 23.3 - 3.3 27 9.7 - - - - - - - 0.0
17/07:30am 22.1 - 2.8 28 9.2 - - - - - - - 0.0
17/07:00am 22.0 - 3.2 29 9.0 - - - - - - - 0.0
17/06:30am 22.1 - 3.3 29 9.0 - - - - - - - 0.0
17/06:00am 21.4 - 3.1 30 8.7 - - - - - - - 0.0
17/05:30am 21.9 - 2.6 28 9.1 - - - - - - - 0.0
17/05:00am 22.6 - 3.2 28 9.3 - - - - - - - 0.0
17/04:30am 23.0 - 3.0 27 9.6 - - - - - - - 0.0
17/04:00am 21.9 - 3.1 29 9.0 - - - - - - - 0.0
17/03:30am 22.4 - 3.0 28 9.3 - - - - - - - 0.0
17/03:00am 24.8 - 2.9 24 10.7 - - - - - - - 0.0
17/02:30am 24.8 - 3.5 25 10.5 - - - - - - - 0.0
17/02:00am 23.2 - 2.7 26 9.8 - - - - - - - 0.0
17/01:30am 23.8 - 3.2 26 10.0 - - - - - - - 0.0
17/01:00am 24.4 - 3.1 25 10.4 - - - - - - - 0.0
17/12:30am 25.4 - 2.8 23 11.0 - - - - - - - 0.0
17/12:00am 27.1 - 2.9 21 12.0 - - - - - - - 0.0
 
Date/Time
EDT
Temp
°C
App
Temp
°C
Dew
Point
°C
Rel
Hum
%
Delta-T
°C
Wind Press
QNH
hPa
Press
MSL
hPa
Rain since
9am
mm
Dir  Spd
km/h
Gust
km/h
Spd
kts
Gust
kts
16/11:30pm 28.7 - 2.8 19 12.9 - - - - - - - 0.0
16/11:00pm 27.9 - 2.9 20 12.4 - - - - - - - 0.0
16/10:30pm 28.3 - 3.2 20 12.6 - - - - - - - 0.0
16/10:00pm 30.1 - 3.2 18 13.6 - - - - - - - 0.0
16/09:30pm 30.0 - 3.1 18 13.6 - - - - - - - 0.0
16/09:00pm 31.8 - 2.9 16 14.7 - - - - - - - 0.0
16/08:30pm 33.6 - 2.4 14 15.9 - - - - - - - 0.0
16/08:00pm 34.9 - 2.4 13 16.7 - - - - - - - 0.0
16/07:30pm 35.9 - 3.2 13 17.1 - - - - - - - 0.0
16/07:00pm 35.5 - 2.9 13 17.0 - - - - - - - 0.0
16/06:30pm 36.6 - 2.6 12 17.7 - - - - - - - 0.0
16/06:00pm 35.9 - 3.2 13 17.1 - - - - - - - 0.0
16/05:30pm 36.0 - 3.3 13 17.2 - - - - - - - 0.0
16/05:00pm 35.9 - 3.2 13 17.1 - - - - - - - 0.0
16/04:30pm 36.5 - 3.7 13 17.4 - - - - - - - 0.0
16/04:00pm 36.3 - 3.5 13 17.3 - - - - - - - 0.0
16/03:30pm 35.5 - 4.9 15 16.4 - - - - - - - 0.0
16/03:00pm 35.8 - 4.2 14 16.8 - - - - - - - 0.0
16/02:30pm 35.0 - 3.5 14 16.5 - - - - - - - 0.0
16/02:00pm 34.6 - 2.2 13 16.6 - - - - - - - 0.0
16/01:30pm 34.5 - 2.1 13 16.6 - - - - - - - 0.0
16/01:00pm 33.5 - 1.3 13 16.1 - - - - - - - 0.0
16/12:30pm 32.9 - 1.9 14 15.6 - - - - - - - 0.0
16/12:00pm 31.9 - 2.1 15 15.0 - - - - - - - 0.0
16/11:30am 31.4 - 2.6 16 14.6 - - - - - - - 0.0
16/11:00am 29.9 - 2.2 17 13.8 - - - - - - - 0.0
16/10:30am 28.5 - 1.9 18 13.0 - - - - - - - 0.0
16/10:00am 27.9 - 2.2 19 12.6 - - - - - - - 0.0
16/09:30am 25.9 - 2.6 22 11.4 - - - - - - - 0.0
16/09:00am 24.1 - 2.3 24 10.4 - - - - - - - 0.0
16/08:30am 22.8 - 2.3 26 9.7 - - - - - - - 0.0
16/08:00am 20.8 - 1.1 27 9.0 - - - - - - - 0.0
16/07:30am 18.9 - 1.0 30 8.0 - - - - - - - 0.0
16/07:00am 18.6 - 0.7 30 8.0 - - - - - - - 0.0
16/06:30am 19.1 - 0.7 29 8.2 - - - - - - - 0.0
16/06:00am 20.0 - 0.5 27 8.7 - - - - - - - 0.0
16/05:30am 20.2 - 0.6 27 8.8 - - - - - - - 0.0
16/05:00am 20.5 - 0.4 26 9.0 - - - - - - - 0.0
16/04:30am 20.8 - 0.1 25 9.3 - - - - - - - 0.0
16/04:00am 21.5 - 0.1 24 9.6 - - - - - - - 0.0
16/03:30am 21.1 - -0.2 24 9.5 - - - - - - - 0.0
16/03:00am 21.1 - -0.8 23 9.6 - - - - - - - 0.0
16/02:30am 21.7 - -0.9 22 10.0 - - - - - - - 0.0
16/02:00am 22.6 - -0.8 21 10.4 - - - - - - - 0.0
16/01:30am 23.0 - -1.1 20 10.7 - - - - - - - 0.0
16/01:00am 23.1 - -1.8 19 10.9 - - - - - - - 0.0
16/12:30am 23.8 - -1.2 19 11.2 - - - - - - - 0.0
16/12:00am 24.7 - -2.0 17 11.8 - - - - - - - 0.0
 
Date/Time
EDT
Temp
°C
App
Temp
°C
Dew
Point
°C
Rel
Hum
%
Delta-T
°C
Wind Press
QNH
hPa
Press
MSL
hPa
Rain since
9am
mm
Dir  Spd
km/h
Gust
km/h
Spd
kts
Gust
kts
15/11:30pm 24.6 - -2.0 17 11.8 - - - - - - - 0.0
15/11:00pm 24.9 - -1.8 17 11.9 - - - - - - - 0.0
15/10:30pm 25.5 - -2.1 16 12.3 - - - - - - - 0.0
15/10:00pm 26.9 - -1.9 15 13.0 - - - - - - - 0.0
15/09:30pm 27.4 - -2.4 14 13.4 - - - - - - - 0.0
15/09:00pm 28.8 - -2.3 13 14.2 - - - - - - - 0.0
15/08:30pm 30.0 - -2.5 12 14.9 - - - - - - - 0.0
15/08:00pm 31.3 - -2.6 11 15.7 - - - - - - - 0.0
15/07:30pm 31.9 - -2.2 11 15.9 - - - - - - - 0.0
15/07:00pm 32.5 - -3.0 10 16.4 - - - - - - - 0.0
15/06:30pm 32.7 - -2.9 10 16.5 - - - - - - - 0.0
15/06:00pm 33.1 - -2.6 10 16.7 - - - - - - - 0.0
15/05:30pm 32.5 - -1.7 11 16.2 - - - - - - - 0.0
15/05:00pm 32.7 - -1.6 11 16.3 - - - - - - - 0.0
15/04:30pm 32.6 - -0.5 12 16.0 - - - - - - - 0.0
15/04:00pm 32.8 - -0.3 12 16.1 - - - - - - - 0.0
15/03:30pm 32.3 - -0.7 12 15.9 - - - - - - - 0.0
15/03:00pm 31.2 - -0.5 13 15.2 - - - - - - - 0.0
15/02:30pm 31.5 - -0.2 13 15.3 - - - - - - - 0.0
15/02:00pm 30.6 - 0.1 14 14.7 - - - - - - - 0.0
15/01:30pm 30.3 - 0.8 15 14.4 - - - - - - - 0.0
15/01:00pm 29.1 - 0.7 16 13.7 - - - - - - - 0.0
15/12:30pm 28.0 - 1.5 18 12.9 - - - - - - - 0.0
15/12:00pm 27.6 - 2.6 20 12.3 - - - - - - - 0.0
15/11:30am 27.4 - 3.2 21 12.0 - - - - - - - 0.0
15/11:00am 26.4 - 3.0 22 11.5 - - - - - - - 0.0
15/10:30am 25.5 - 3.5 24 10.9 - - - - - - - 0.0
15/10:00am 24.4 - 3.7 26 10.2 - - - - - - - 0.0
15/09:30am 23.0 - 3.5 28 9.5 - - - - - - - 0.0
15/09:00am 20.6 - 3.3 32 8.2 - - - - - - - 0.0
15/08:30am 19.5 - 3.6 35 7.5 - - - - - - - 0.0
15/08:00am 16.9 - 3.6 41 6.2 - - - - - - - 0.0
15/07:30am 12.9 - 2.5 49 4.6 - - - - - - - 0.0
15/07:00am 12.6 - 2.2 49 4.5 - - - - - - - 0.0
15/06:30am 14.4 - 3.2 47 5.1 - - - - - - - 0.0
15/06:00am 13.4 - 1.7 45 5.1 - - - - - - - 0.0
15/05:30am 15.1 - 2.3 42 5.7 - - - - - - - 0.0
15/05:00am 15.8 - 2.9 42 5.9 - - - - - - - 0.0
15/04:30am 15.5 - 2.0 40 6.0 - - - - - - - 0.0
15/04:00am 16.1 - 2.5 40 6.1 - - - - - - - 0.0
15/03:30am 14.8 - 1.7 41 5.7 - - - - - - - 0.0
15/03:00am 15.1 - 1.6 40 5.9 - - - - - - - 0.0
15/02:30am 15.8 - 0.8 36 6.5 - - - - - - - 0.0
15/02:00am 17.1 - 1.1 34 7.1 - - - - - - - 0.0
15/01:30am 18.0 - 1.1 32 7.5 - - - - - - - 0.0
15/01:00am 18.6 - 1.2 31 7.8 - - - - - - - 0.0
15/12:30am 19.7 - 1.2 29 8.4 - - - - - - - 0.0
15/12:00am 21.1 - 1.4 27 9.1 - - - - - - - 0.0
 
Date/Time
EDT
Temp
°C
App
Temp
°C
Dew
Point
°C
Rel
Hum
%
Delta-T
°C
Wind Press
QNH
hPa
Press
MSL
hPa
Rain since
9am
mm
Dir  Spd
km/h
Gust
km/h
Spd
kts
Gust
kts
14/11:30pm 21.8 - 0.9 25 9.6 - - - - - - - 0.0
14/11:00pm 22.2 - 1.3 25 9.7 - - - - - - - 0.0
14/10:30pm 21.2 - -0.1 24 9.5 - - - - - - - 0.0
14/10:00pm 22.1 - 0.0 23 10.0 - - - - - - - 0.0
14/09:30pm 22.9 - -0.6 21 10.5 - - - - - - - 0.0
14/09:00pm 24.8 - -0.4 19 11.5 - - - - - - - 0.0
14/08:30pm 25.9 - -0.2 18 12.1 - - - - - - - 0.0
14/08:00pm 26.8 - -0.3 17 12.6 - - - - - - - 0.0
14/07:30pm 27.3 - -0.7 16 13.0 - - - - - - - 0.0
14/07:00pm 27.6 - -0.5 16 13.1 - - - - - - - 0.0
14/06:30pm 28.1 - -0.9 15 13.5 - - - - - - - 0.0
14/06:00pm 28.4 - -0.7 15 13.6 - - - - - - - 0.0
14/05:30pm 27.8 - -0.3 16 13.2 - - - - - - - 0.0
14/05:00pm 28.1 - -0.1 16 13.3 - - - - - - - 0.0
14/04:30pm 27.5 - -0.5 16 13.1 - - - - - - - 0.0
14/04:00pm 27.5 - 0.3 17 12.9 - - - - - - - 0.0
14/03:30pm 27.1 - 0.0 17 12.7 - - - - - - - 0.0
14/03:00pm 26.2 - -0.8 17 12.4 - - - - - - - 0.0
14/02:30pm 26.9 - 0.6 18 12.5 - - - - - - - 0.0
14/02:00pm 25.0 - 0.5 20 11.4 - - - - - - - 0.0
14/01:30pm 24.9 - 1.1 21 11.2 - - - - - - - 0.0
14/01:00pm 24.0 - 1.6 23 10.6 - - - - - - - 0.0
14/12:30pm 23.4 - 1.7 24 10.2 - - - - - - - 0.0
14/12:00pm 22.4 - 2.0 26 9.6 - - - - - - - 0.0
14/11:30am 22.5 - 2.1 26 9.6 - - - - - - - 0.0
14/11:00am 22.2 - 2.3 27 9.4 - - - - - - - 0.0
14/10:30am 20.9 - 2.2 29 8.7 - - - - - - - 0.0

Other Formats:

Comma delimited format used in spreadsheet applications
http://www.bom.gov.au/fwo/IDN60801/IDN60801.94797.axf

JavaScript Object Notation format (JSON) in row-major order
http://www.bom.gov.au/fwo/IDN60801/IDN60801.94797.json